createdAt,value
2018-04-09T00:03:39.282Z,46.10
2018-04-09T00:08:41.849Z,45.60
2018-04-09T00:13:45.200Z,45.10
2018-04-09T00:18:47.772Z,45.70
2018-04-09T00:23:50.345Z,45.70
2018-04-09T00:28:52.897Z,46.80
2018-04-09T00:33:55.753Z,46.30
2018-04-09T00:38:58.332Z,45.60
2018-04-09T00:44:00.920Z,45.50
2018-04-09T00:49:03.954Z,46.90
2018-04-09T00:54:06.509Z,47.60
2018-04-09T00:59:09.659Z,47.60
2018-04-09T01:04:12.224Z,47.40
2018-04-09T01:09:15.088Z,46.70
2018-04-09T01:14:17.670Z,47.30
2018-04-09T01:19:20.574Z,47.70
2018-04-09T01:24:23.144Z,47.80
2018-04-09T01:29:26.278Z,47.80
2018-04-09T01:34:31.473Z,48.50
2018-04-09T01:39:34.045Z,49.20
2018-04-09T01:44:36.813Z,49.00
2018-04-09T01:49:39.629Z,49.30
2018-04-09T01:54:42.219Z,49.90
2018-04-09T01:59:44.800Z,51.40
2018-04-09T02:04:47.454Z,51.70
2018-04-09T02:09:50.896Z,51.10
2018-04-09T02:14:54.588Z,50.50
2018-04-09T02:19:57.626Z,50.80
2018-04-09T02:25:00.239Z,50.70
2018-04-09T02:30:02.804Z,50.60
2018-04-09T02:35:05.505Z,52.20
2018-04-09T02:40:08.539Z,51.70
2018-04-09T02:45:11.113Z,52.00
2018-04-09T02:50:13.912Z,52.10
2018-04-09T02:55:17.066Z,51.90
2018-04-09T03:00:19.628Z,51.60
2018-04-09T03:05:22.466Z,51.00
2018-04-09T03:10:25.035Z,50.60
2018-04-09T03:15:28.302Z,50.90
2018-04-09T03:20:30.862Z,50.90
2018-04-09T03:25:33.457Z,50.80
2018-04-09T03:30:36.028Z,51.40
2018-04-09T03:35:39.200Z,51.30
2018-04-09T03:40:41.769Z,51.40
2018-04-09T03:45:45.072Z,52.20
2018-04-09T03:50:47.633Z,52.80
2018-04-09T03:55:50.387Z,52.40
2018-04-09T04:00:54.251Z,51.90
2018-04-09T04:05:56.829Z,52.20
2018-04-09T04:10:59.384Z,52.70
2018-04-09T04:16:14.445Z,52.90
2018-04-09T04:21:28.671Z,52.60
2018-04-09T04:26:37.490Z,53.10
2018-04-09T04:31:40.682Z,54.00
2018-04-09T04:36:43.258Z,53.90
2018-04-09T04:41:46.271Z,54.00
2018-04-09T04:46:50.512Z,54.20
2018-04-09T04:51:53.373Z,54.20
2018-04-09T04:56:56.205Z,54.90
2018-04-09T05:01:58.817Z,54.60
2018-04-09T05:07:01.395Z,54.10
2018-04-09T05:12:03.961Z,53.60
2018-04-09T05:17:06.545Z,54.10
2018-04-09T05:22:09.125Z,54.20
2018-04-09T05:27:11.981Z,54.50
2018-04-09T05:32:14.547Z,54.50
2018-04-09T05:37:17.116Z,54.20
2018-04-09T05:42:19.686Z,54.20
2018-04-09T05:47:22.241Z,54.30
2018-04-09T05:52:27.968Z,54.80
2018-04-09T05:57:30.566Z,55.60
2018-04-09T06:02:33.153Z,56.00
2018-04-09T06:07:35.723Z,57.30
2018-04-09T06:12:38.295Z,56.80
2018-04-09T06:17:41.524Z,56.80
2018-04-09T06:22:44.542Z,56.40
2018-04-09T06:27:47.107Z,58.10
2018-04-09T06:32:49.693Z,58.00
2018-04-09T06:37:52.259Z,58.40
2018-04-09T06:42:54.818Z,58.20
2018-04-09T06:47:57.392Z,57.60
2018-04-09T06:52:59.942Z,57.80
2018-04-09T06:58:02.514Z,56.90
2018-04-09T07:03:05.090Z,56.60
2018-04-09T07:08:07.654Z,56.20
2018-04-09T07:13:10.464Z,56.50
2018-04-09T07:18:13.049Z,55.60
2018-04-09T07:23:15.818Z,56.00
2018-04-09T07:28:18.386Z,56.40
2018-04-09T07:33:21.108Z,57.80
2018-04-09T07:38:23.756Z,59.30
2018-04-09T07:43:26.426Z,61.00
2018-04-09T07:48:28.987Z,62.20
2018-04-09T07:53:31.542Z,60.80
2018-04-09T07:58:34.350Z,58.90
2018-04-09T08:03:36.919Z,58.20
2018-04-09T08:08:39.501Z,56.70
2018-04-09T08:13:50.570Z,56.50
2018-04-09T08:18:53.138Z,55.50
2018-04-09T08:23:55.716Z,54.90
2018-04-09T08:28:58.275Z,53.70
2018-04-09T08:34:00.875Z,52.70
2018-04-09T08:39:03.451Z,53.90
2018-04-09T08:44:06.230Z,54.30
2018-04-09T08:49:08.812Z,54.10
2018-04-09T08:54:11.991Z,53.70
2018-04-09T08:59:14.551Z,52.70
2018-04-09T09:04:17.716Z,52.20
2018-04-09T09:09:20.284Z,50.70
2018-04-09T09:14:22.856Z,50.70
2018-04-09T09:19:25.449Z,48.50
2018-04-09T09:24:28.047Z,47.10
2018-04-09T09:29:30.634Z,47.50
2018-04-09T09:34:33.215Z,48.50
2018-04-09T09:39:35.789Z,48.20
2018-04-09T09:44:38.368Z,48.00
2018-04-09T09:49:40.942Z,46.90
2018-04-09T09:54:43.525Z,45.70
2018-04-09T09:59:46.086Z,45.90
2018-04-09T10:04:48.670Z,41.90
2018-04-09T10:09:51.239Z,42.20
2018-04-09T10:14:53.820Z,42.00
2018-04-09T10:19:56.387Z,39.20
2018-04-09T10:24:58.973Z,38.60
2018-04-09T10:30:01.538Z,38.10
2018-04-09T10:35:04.113Z,36.30
2018-04-09T10:40:06.686Z,36.20
2018-04-09T10:45:09.884Z,33.90
2018-04-09T10:50:12.468Z,33.90
2018-04-09T10:55:15.271Z,35.50
2018-04-09T11:00:17.835Z,34.40
2018-04-09T11:05:20.391Z,31.70
2018-04-09T11:10:22.952Z,31.50
2018-04-09T11:15:25.527Z,31.50
2018-04-09T11:20:30.979Z,31.50
2018-04-09T11:25:33.566Z,31.40
2018-04-09T11:30:36.144Z,30.60
2018-04-09T11:35:38.718Z,30.70
2018-04-09T11:40:41.294Z,30.60
2018-04-09T11:45:43.868Z,30.30
2018-04-09T11:50:47.027Z,30.30
2018-04-09T11:55:49.589Z,28.90
2018-04-09T12:00:52.133Z,29.70
2018-04-09T12:05:54.705Z,29.20
2018-04-09T12:10:57.276Z,29.40
2018-04-09T12:15:59.838Z,31.00
2018-04-09T12:21:05.075Z,30.80
2018-04-09T12:26:07.632Z,31.00
2018-04-09T12:31:11.482Z,30.90
2018-04-09T12:36:14.045Z,30.60
2018-04-09T12:41:16.650Z,29.20
2018-04-09T12:46:19.227Z,29.40
2018-04-09T12:51:22.479Z,29.60
2018-04-09T12:56:25.883Z,30.10
2018-04-09T13:01:28.457Z,30.60
2018-04-09T13:06:31.040Z,29.70
2018-04-09T13:11:33.605Z,30.50
2018-04-09T13:16:36.194Z,30.30
2018-04-09T13:21:39.482Z,30.00
2018-04-09T13:26:42.061Z,29.60
2018-04-09T13:31:44.640Z,29.30
2018-04-09T13:36:47.847Z,29.60
2018-04-09T13:41:51.196Z,29.50
2018-04-09T13:46:53.760Z,28.70
2018-04-09T13:51:56.319Z,29.80
2018-04-09T13:56:58.904Z,29.00
2018-04-09T14:02:01.521Z,29.40
2018-04-09T14:07:04.064Z,28.20
2018-04-09T14:12:06.630Z,28.80
2018-04-09T14:17:09.228Z,29.60
2018-04-09T14:22:11.836Z,28.90
2018-04-09T14:27:14.395Z,29.20
2018-04-09T14:32:17.397Z,29.90
2018-04-09T14:37:19.963Z,30.40
2018-04-09T14:42:23.247Z,29.20
2018-04-09T14:47:26.088Z,29.00
2018-04-09T14:52:28.661Z,30.00
2018-04-09T14:57:31.473Z,29.30
2018-04-09T15:02:36.487Z,29.70
2018-04-09T15:07:39.065Z,29.90
2018-04-09T15:12:41.626Z,30.30
2018-04-09T15:17:46.780Z,30.00
2018-04-09T15:22:49.363Z,30.10
2018-04-09T15:27:51.940Z,30.80
2018-04-09T15:32:54.530Z,30.30
2018-04-09T15:37:57.131Z,30.20
2018-04-09T15:43:00.157Z,29.70
2018-04-09T15:48:02.732Z,30.00
2018-04-09T15:53:05.597Z,30.40
2018-04-09T15:58:08.178Z,30.00
2018-04-09T16:03:11.087Z,29.60
2018-04-09T16:08:14.852Z,29.70
2018-04-09T16:13:17.504Z,29.80
2018-04-09T16:18:20.093Z,29.60
2018-04-09T16:23:23.335Z,29.90
2018-04-09T16:28:26.788Z,30.00
2018-04-09T16:33:29.987Z,29.60
2018-04-09T16:38:32.755Z,29.90
2018-04-09T16:43:38.665Z,29.80
2018-04-09T16:48:41.792Z,30.00
2018-04-09T16:53:44.354Z,30.30
2018-04-09T16:58:46.925Z,30.10
2018-04-09T17:03:50.112Z,30.20
2018-04-09T17:08:52.676Z,30.30
2018-04-09T17:13:59.435Z,30.40
2018-04-09T17:19:02.627Z,31.00
2018-04-09T17:24:07.773Z,31.30
2018-04-09T17:29:10.361Z,33.00
2018-04-09T17:34:13.770Z,34.00
2018-04-09T17:39:16.912Z,34.90
2018-04-09T17:44:19.489Z,35.80
2018-04-09T17:49:22.059Z,36.20
2018-04-09T17:54:24.636Z,35.70
2018-04-09T17:59:27.456Z,35.80
2018-04-09T18:04:30.043Z,36.10
2018-04-09T18:09:33.228Z,36.20
2018-04-09T18:14:35.817Z,36.70
2018-04-09T18:19:38.411Z,38.00
2018-04-09T18:24:41.464Z,38.50
2018-04-09T18:29:44.024Z,38.20
2018-04-09T18:34:47.224Z,38.40
2018-04-09T18:39:50.075Z,38.70
2018-04-09T18:44:52.658Z,38.90
2018-04-09T18:49:55.231Z,38.80
2018-04-09T18:54:57.831Z,38.90
2018-04-09T19:00:00.388Z,39.50
2018-04-09T19:05:03.659Z,39.70
2018-04-09T19:10:06.225Z,40.10
2018-04-09T19:15:09.042Z,39.80
2018-04-09T19:20:11.596Z,39.70
2018-04-09T19:25:20.808Z,39.40
2018-04-09T19:30:24.000Z,38.80
2018-04-09T19:35:27.149Z,38.40
2018-04-09T19:40:52.530Z,38.50
2018-04-09T19:45:55.441Z,38.00
2018-04-09T19:50:58.003Z,39.10
2018-04-09T19:56:00.564Z,41.10
2018-04-09T20:01:03.266Z,41.30
2018-04-09T20:06:06.216Z,41.90
2018-04-09T20:11:08.805Z,42.50
2018-04-09T20:16:11.376Z,42.80
2018-04-09T20:21:14.222Z,41.70
2018-04-09T20:26:17.138Z,42.50
2018-04-09T20:31:19.719Z,41.80
2018-04-09T20:36:22.506Z,41.90
2018-04-09T20:41:25.194Z,41.80
2018-04-09T20:46:28.216Z,41.40
2018-04-09T20:51:31.465Z,41.40
2018-04-09T20:56:34.032Z,43.30
2018-04-09T21:01:36.595Z,44.40
2018-04-09T21:06:39.156Z,43.90
2018-04-09T21:11:42.380Z,43.90
2018-04-09T21:16:45.543Z,44.30
2018-04-09T21:21:48.115Z,44.60
2018-04-09T21:26:50.687Z,44.80
2018-04-09T21:31:59.748Z,45.00
2018-04-09T21:37:02.323Z,45.50
2018-04-09T21:42:04.885Z,45.20
2018-04-09T21:47:07.460Z,45.70
2018-04-09T21:52:10.017Z,45.90
2018-04-09T21:57:12.584Z,46.60
2018-04-09T22:02:15.389Z,46.90
2018-04-09T22:07:17.977Z,46.50
2018-04-09T22:12:20.535Z,46.80
2018-04-09T22:17:23.099Z,47.50
2018-04-09T22:22:26.628Z,47.60
2018-04-09T22:27:29.684Z,47.40
2018-04-09T22:32:32.252Z,48.60
2018-04-09T22:37:34.812Z,48.80
2018-04-09T22:42:37.364Z,49.00
2018-04-09T22:47:40.387Z,48.80
2018-04-09T22:52:43.589Z,48.50
2018-04-09T22:57:47.008Z,48.80
2018-04-09T23:02:50.183Z,48.90
2018-04-09T23:07:52.748Z,49.80
2018-04-09T23:12:55.320Z,50.00
2018-04-09T23:17:58.199Z,50.40
2018-04-09T23:23:00.770Z,50.60
2018-04-09T23:28:04.757Z,50.50
2018-04-09T23:33:07.328Z,50.70
2018-04-09T23:38:09.903Z,51.00
2018-04-09T23:43:12.492Z,51.10
2018-04-09T23:48:15.064Z,51.40
2018-04-09T23:53:19.182Z,51.80
2018-04-09T23:58:21.748Z,51.90
